Terminal Aerodrome Forecast
Issued by NWS Tulsa, OK

Home | Current Version | Previous Version | Text Only | Print | Product List | Glossary On
Versions: 1 2 3 4 5 6 7 8 9 10 11 12 13 14 15 16 17 18
000
FTUS44 KTSA 221120
TAFFSM
TAF
KFSM 221120Z 2212/2312 06004KT P6SM FEW250
      TEMPO 2212/2214 4SM BR
     FM221400 13006KT P6SM SCT025
     FM221800 15010KT P6SM BKN050
     FM230100 08003KT P6SM FEW250=

USA.gov is the U.S. government's official web portal to all federal, state and local government web resources and services.